Time;durP1;ratioP1;P1;durP2;ratioP2;P2;SDS_P1;SDS_P2;PMS_P1;PMS_P2;Temp;Humidity;BMP_temperature;BMP_pressure;BME280_temperature;BME280_humidity;BME280_pressure;Samples;Min_cycle;Max_cycle;Signal;HPM_P1;HPM_P2
2023/09/26 00:03:18;;;;;;;21.30;14.00;;;;;;;;;;103762;1291;545556;-75
2023/09/26 00:06:57;;;;;;;20.10;13.80;;;;;;;;;;103877;1288;544791;-75
2023/09/26 00:10:33;;;;;;;19.60;13.00;;;;;;;;;;104026;1289;544940;-74
2023/09/26 00:14:10;;;;;;;18.40;12.70;;;;;;;;;;104066;1290;545490;-74
2023/09/26 00:17:48;;;;;;;18.60;14.00;;;;;;;;;;104082;1292;544955;-74
2023/09/26 00:21:25;;;;;;;21.20;14.90;;;;;;;;;;103814;1289;545666;-75
2023/09/26 00:25:03;;;;;;;19.00;13.60;;;;;;;;;;103706;1291;544992;-74
2023/09/26 00:28:40;;;;;;;17.90;12.60;;;;;;;;;;103873;1292;545029;-74
2023/09/26 00:32:18;;;;;;;19.80;14.20;;;;;;;;;;103725;1292;545490;-75
2023/09/26 00:35:55;;;;;;;18.40;13.90;;;;;;;;;;103745;1290;545013;-74
2023/09/26 00:39:34;;;;;;;21.40;15.20;;;;;;;;;;103668;1292;545078;-74
2023/09/26 00:43:19;;;;;;;20.60;14.70;;;;;;;;;;103816;1292;545328;-75
2023/09/26 00:46:53;;;;;;;20.90;14.40;;;;;;;;;;103635;1294;547894;-74
2023/09/26 00:50:25;;;;;;;19.70;15.50;;;;;;;;;;103873;1293;546132;-74
2023/09/26 00:54:02;;;;;;;21.80;16.10;;;;;;;;;;103787;1293;545421;-74
2023/09/26 00:57:40;;;;;;;21.30;15.00;;;;;;;;;;103760;1292;545628;-74
2023/09/26 01:01:24;;;;;;;18.00;14.00;;;;;;;;;;103798;1295;544766;-75
2023/09/26 01:04:55;;;;;;;19.10;13.00;;;;;;;;;;103757;1292;544990;-74
2023/09/26 01:08:33;;;;;;;17.90;12.30;;;;;;;;;;103781;1291;544864;-74
2023/09/26 01:12:11;;;;;;;18.00;13.20;;;;;;;;;;103836;1289;544749;-75
2023/09/26 01:15:47;;;;;;;20.30;13.70;;;;;;;;;;104591;1282;545279;-75
2023/09/26 01:19:25;;;;;;;17.30;13.30;;;;;;;;;;104053;1290;545711;-74
2023/09/26 01:23:05;;;;;;;17.90;13.00;;;;;;;;;;103787;1295;544597;-74
2023/09/26 01:26:40;;;;;;;18.90;13.80;;;;;;;;;;103887;1289;544743;-74
2023/09/26 01:30:17;;;;;;;19.00;14.20;;;;;;;;;;103767;1296;544989;-74
2023/09/26 01:33:54;;;;;;;22.20;15.10;;;;;;;;;;103759;1289;544988;-74
2023/09/26 01:37:33;;;;;;;20.30;14.10;;;;;;;;;;104020;1292;544929;-74
2023/09/26 01:41:09;;;;;;;19.30;13.10;;;;;;;;;;103753;1292;544944;-74
2023/09/26 01:44:46;;;;;;;20.70;13.80;;;;;;;;;;103991;1291;544944;-75
2023/09/26 01:48:24;;;;;;;21.30;14.70;;;;;;;;;;104464;1283;546148;-74
2023/09/26 01:52:02;;;;;;;20.90;14.80;;;;;;;;;;103732;1292;545449;-74
2023/09/26 01:55:40;;;;;;;16.90;11.90;;;;;;;;;;104032;1289;544967;-74
2023/09/26 01:59:17;;;;;;;18.40;13.00;;;;;;;;;;103752;1290;545690;-74
2023/09/26 02:02:54;;;;;;;21.60;14.80;;;;;;;;;;104092;1289;545138;-74
2023/09/26 02:06:31;;;;;;;19.30;13.60;;;;;;;;;;103755;1290;545121;-74
2023/09/26 02:10:09;;;;;;;19.50;13.20;;;;;;;;;;103809;1289;544943;-74
2023/09/26 02:13:47;;;;;;;18.80;13.30;;;;;;;;;;103677;1289;545473;-74
2023/09/26 02:17:24;;;;;;;19.70;14.20;;;;;;;;;;103725;1289;544832;-74
2023/09/26 02:21:02;;;;;;;19.10;13.50;;;;;;;;;;103699;1291;544963;-74
2023/09/26 02:24:39;;;;;;;19.10;13.00;;;;;;;;;;104273;1283;544773;-74
2023/09/26 02:28:17;;;;;;;17.10;12.40;;;;;;;;;;103664;1290;544933;-74
2023/09/26 02:31:54;;;;;;;18.80;13.40;;;;;;;;;;104114;1289;545319;-74
2023/09/26 02:35:31;;;;;;;20.30;13.70;;;;;;;;;;103753;1289;545133;-74
2023/09/26 02:39:09;;;;;;;20.10;13.80;;;;;;;;;;103780;1292;545375;-74
2023/09/26 02:42:48;;;;;;;17.40;12.30;;;;;;;;;;103611;1295;545056;-74
2023/09/26 02:46:24;;;;;;;17.90;13.10;;;;;;;;;;103926;1290;544913;-74
2023/09/26 02:50:01;;;;;;;20.90;14.20;;;;;;;;;;103733;1291;544943;-74
2023/09/26 02:53:38;;;;;;;24.10;16.50;;;;;;;;;;103811;1295;545025;-74
2023/09/26 02:57:17;;;;;;;20.90;15.10;;;;;;;;;;103796;1289;544824;-74
2023/09/26 03:00:53;;;;;;;21.80;14.50;;;;;;;;;;103748;1291;545608;-74
2023/09/26 03:04:31;;;;;;;18.30;13.00;;;;;;;;;;103763;1288;545722;-74
2023/09/26 03:08:08;;;;;;;17.80;13.10;;;;;;;;;;104007;1289;545461;-74
2023/09/26 03:11:52;;;;;;;18.90;13.50;;;;;;;;;;103448;1292;547999;-74
2023/09/26 03:15:23;;;;;;;19.20;13.30;;;;;;;;;;103982;1292;544851;-74
2023/09/26 03:19:01;;;;;;;17.40;12.20;;;;;;;;;;103721;1291;544854;-74
2023/09/26 03:22:38;;;;;;;19.60;14.00;;;;;;;;;;103809;1290;546230;-74
2023/09/26 03:26:16;;;;;;;19.40;13.20;;;;;;;;;;104007;1289;544891;-74
2023/09/26 03:29:53;;;;;;;19.00;12.60;;;;;;;;;;104070;1289;544976;-74
2023/09/26 03:33:30;;;;;;;22.50;13.60;;;;;;;;;;103752;1290;544974;-74
2023/09/26 03:37:08;;;;;;;21.70;14.40;;;;;;;;;;103849;1292;545025;-74
2023/09/26 03:40:46;;;;;;;20.30;13.70;;;;;;;;;;103703;1291;544784;-74
2023/09/26 03:44:23;;;;;;;19.40;13.10;;;;;;;;;;103763;1291;545017;-74
2023/09/26 03:48:01;;;;;;;18.10;13.00;;;;;;;;;;103702;1288;545963;-74
2023/09/26 03:51:38;;;;;;;21.20;13.70;;;;;;;;;;103731;1292;544880;-74
2023/09/26 03:55:16;;;;;;;18.70;13.20;;;;;;;;;;103769;1292;544994;-74
2023/09/26 03:58:56;;;;;;;19.90;12.20;;;;;;;;;;103688;1292;545433;-74
2023/09/26 04:02:33;;;;;;;20.10;13.80;;;;;;;;;;103554;1291;544970;-74
2023/09/26 04:06:09;;;;;;;24.90;15.90;;;;;;;;;;103812;1292;544773;-74
2023/09/26 04:09:45;;;;;;;17.40;12.70;;;;;;;;;;104107;1287;545910;-74
2023/09/26 04:13:23;;;;;;;19.20;13.40;;;;;;;;;;103732;1292;544767;-74
2023/09/26 04:17:02;;;;;;;18.80;13.30;;;;;;;;;;103702;1292;546184;-74
2023/09/26 04:20:38;;;;;;;22.20;14.40;;;;;;;;;;103682;1291;545621;-73
2023/09/26 04:24:16;;;;;;;22.30;14.00;;;;;;;;;;103628;1290;544757;-74
2023/09/26 04:27:53;;;;;;;20.60;14.10;;;;;;;;;;103823;1289;544918;-74
2023/09/26 04:31:31;;;;;;;22.00;14.20;;;;;;;;;;103731;1292;544948;-74
2023/09/26 04:35:08;;;;;;;23.80;15.50;;;;;;;;;;103676;1292;544979;-74
2023/09/26 04:38:45;;;;;;;20.10;13.10;;;;;;;;;;103741;1292;545314;-74
2023/09/26 04:42:22;;;;;;;17.60;12.10;;;;;;;;;;103883;1288;545260;-74
2023/09/26 04:45:56;;;;;;;21.70;12.40;;;;;;;;;;103862;1293;544992;-74
2023/09/26 04:49:39;;;;;;;18.80;11.20;;;;;;;;;;103754;1292;545946;-74
2023/09/26 04:53:16;;;;;;;17.00;10.00;;;;;;;;;;104752;1282;545428;-74
2023/09/26 04:56:54;;;;;;;17.80;11.80;;;;;;;;;;103969;1295;544775;-74
2023/09/26 05:00:32;;;;;;;15.60;11.30;;;;;;;;;;103967;1292;544959;-74
2023/09/26 05:04:08;;;;;;;31.20;15.20;;;;;;;;;;103837;1289;544956;-74
2023/09/26 05:07:48;;;;;;;22.20;12.70;;;;;;;;;;103769;1291;544897;-74
2023/09/26 05:11:26;;;;;;;21.90;12.90;;;;;;;;;;103759;1295;544985;-74
2023/09/26 05:15:01;;;;;;;21.60;13.40;;;;;;;;;;103785;1291;544825;-74
2023/09/26 05:18:38;;;;;;;23.10;13.60;;;;;;;;;;103733;1292;544792;-74
2023/09/26 05:22:17;;;;;;;23.30;13.20;;;;;;;;;;104256;1288;544874;-74
2023/09/26 05:25:53;;;;;;;22.50;14.30;;;;;;;;;;103767;1289;544817;-74
2023/09/26 05:29:34;;;;;;;23.60;14.50;;;;;;;;;;103724;1291;545101;-74
2023/09/26 05:33:08;;;;;;;22.30;13.00;;;;;;;;;;103745;1289;544963;-74
2023/09/26 05:36:46;;;;;;;25.10;13.00;;;;;;;;;;103774;1289;545043;-74
2023/09/26 05:40:23;;;;;;;22.30;13.00;;;;;;;;;;103762;1291;544985;-74
2023/09/26 05:44:01;;;;;;;22.50;13.60;;;;;;;;;;103728;1289;545630;-74
2023/09/26 05:47:39;;;;;;;23.40;14.00;;;;;;;;;;103729;1289;544842;-74
2023/09/26 05:51:16;;;;;;;20.00;12.40;;;;;;;;;;103933;1289;544878;-74
2023/09/26 05:54:53;;;;;;;18.80;11.50;;;;;;;;;;103707;1289;545048;-74
2023/09/26 05:58:31;;;;;;;19.60;12.80;;;;;;;;;;103775;1292;544999;-74
2023/09/26 06:02:10;;;;;;;17.90;12.20;;;;;;;;;;103874;1291;545579;-74
2023/09/26 06:05:45;;;;;;;19.90;12.00;;;;;;;;;;103895;1292;545181;-74
2023/09/26 06:09:23;;;;;;;19.30;12.30;;;;;;;;;;103749;1292;545412;-74
2023/09/26 06:13:00;;;;;;;22.30;13.00;;;;;;;;;;103749;1292;544895;-74
2023/09/26 06:16:39;;;;;;;23.50;14.60;;;;;;;;;;103654;1290;546011;-74
2023/09/26 06:20:16;;;;;;;24.00;14.70;;;;;;;;;;103774;1291;545234;-74
2023/09/26 06:23:53;;;;;;;22.70;13.80;;;;;;;;;;104028;1292;546201;-74
2023/09/26 06:27:35;;;;;;;24.80;14.30;;;;;;;;;;103826;1289;545133;-74
2023/09/26 06:31:08;;;;;;;20.20;14.30;;;;;;;;;;104543;1283;544791;-74
2023/09/26 06:34:47;;;;;;;21.70;13.40;;;;;;;;;;103758;1289;544895;-74
2023/09/26 06:38:23;;;;;;;20.70;13.80;;;;;;;;;;103770;1289;544865;-74
2023/09/26 06:42:00;;;;;;;19.40;13.00;;;;;;;;;;103839;1289;545324;-74
2023/09/26 06:45:39;;;;;;;20.40;13.40;;;;;;;;;;103720;1291;545113;-74
2023/09/26 06:49:15;;;;;;;18.60;12.90;;;;;;;;;;103836;1292;544890;-74
2023/09/26 06:52:53;;;;;;;21.70;13.10;;;;;;;;;;103654;1292;546352;-74
2023/09/26 06:56:30;;;;;;;19.80;13.50;;;;;;;;;;103775;1292;544725;-74
2023/09/26 07:00:16;;;;;;;26.10;14.20;;;;;;;;;;104028;1289;545444;-74
2023/09/26 07:03:49;;;;;;;21.40;13.30;;;;;;;;;;103768;1294;545001;-74
2023/09/26 07:07:23;;;;;;;20.30;13.10;;;;;;;;;;103732;1291;544795;-74
2023/09/26 07:11:04;;;;;;;19.70;13.10;;;;;;;;;;103741;1291;545708;-74
2023/09/26 07:14:38;;;;;;;19.40;13.40;;;;;;;;;;103734;1292;544806;-74
2023/09/26 07:18:15;;;;;;;19.40;13.00;;;;;;;;;;103779;1289;545944;-73
2023/09/26 07:21:53;;;;;;;19.10;12.40;;;;;;;;;;103613;1292;544928;-74
2023/09/26 07:25:30;;;;;;;18.70;12.60;;;;;;;;;;104046;1288;545553;-74
2023/09/26 07:29:07;;;;;;;18.40;13.20;;;;;;;;;;103661;1291;544990;-74
2023/09/26 07:32:45;;;;;;;19.40;12.80;;;;;;;;;;103511;1293;545444;-74
2023/09/26 07:36:22;;;;;;;17.80;11.80;;;;;;;;;;103929;1297;545442;-74
2023/09/26 07:40:03;;;;;;;18.30;11.40;;;;;;;;;;103811;1289;545540;-74
2023/09/26 07:54:21;;;;;;;18.20;11.50;;;;;;;;;;107179;1262;549819;-74
2023/09/26 08:08:24;;;;;;;15.10;10.00;;;;;;;;;;106818;1264;549429;-74
2023/09/26 08:22:11;;;;;;;15.40;9.80;;;;;;;;;;106722;1263;550159;-74
2023/09/26 08:25:38;;;;;;;13.80;9.20;;;;;;;;;;104668;1282;553774;-74
2023/09/26 08:28:31;;;;;;;13.40;8.00;;;;;;;;;;103740;1289;546062;-74
2023/09/26 08:42:56;;;;;;;13.60;7.80;;;;;;;;;;108504;1262;549141;-73
2023/09/26 08:45:45;;;;;;;14.50;8.60;;;;;;;;;;103729;1291;545438;-72
2023/09/26 08:49:22;;;;;;;14.50;7.90;;;;;;;;;;103835;1292;545051;-75
2023/09/26 08:53:00;;;;;;;13.60;7.90;;;;;;;;;;103741;1292;545771;-74
2023/09/26 08:56:37;;;;;;;12.00;8.20;;;;;;;;;;103767;1289;545001;-74
2023/09/26 09:00:33;;;;;;;13.40;7.50;;;;;;;;;;103563;1292;545911;-74
2023/09/26 09:14:33;;;;;;;11.50;6.80;;;;;;;;;;104207;1286;554518;-74
2023/09/26 09:17:19;;;;;;;13.50;7.90;;;;;;;;;;104035;1291;544741;-74
2023/09/26 09:20:56;;;;;;;12.40;7.10;;;;;;;;;;103766;1301;544775;-72
2023/09/26 09:24:36;;;;;;;12.90;6.90;;;;;;;;;;103806;1289;544819;-74
2023/09/26 09:28:30;;;;;;;12.90;8.10;;;;;;;;;;104001;1291;547913;-74
2023/09/26 09:31:49;;;;;;;15.40;8.30;;;;;;;;;;104601;1286;545725;-73
2023/09/26 09:35:26;;;;;;;14.90;9.20;;;;;;;;;;103764;1292;545432;-71
2023/09/26 09:39:04;;;;;;;16.10;9.60;;;;;;;;;;103754;1290;545175;-74
2023/09/26 09:42:41;;;;;;;15.50;8.80;;;;;;;;;;103633;1292;545514;-74
2023/09/26 09:46:20;;;;;;;15.90;8.90;;;;;;;;;;103811;1291;546445;-74
2023/09/26 09:49:59;;;;;;;12.70;8.00;;;;;;;;;;103837;1288;544956;-72
2023/09/26 09:53:34;;;;;;;14.00;10.00;;;;;;;;;;103769;1289;544862;-74
2023/09/26 09:57:12;;;;;;;12.80;9.20;;;;;;;;;;104272;1288;545315;-74
2023/09/26 10:00:48;;;;;;;13.80;9.40;;;;;;;;;;103901;1290;544916;-74
2023/09/26 10:04:26;;;;;;;13.30;9.40;;;;;;;;;;103750;1289;544802;-73
2023/09/26 10:08:05;;;;;;;30.10;26.90;;;;;;;;;;103955;1289;545030;-73
2023/09/26 10:11:40;;;;;;;27.20;24.40;;;;;;;;;;103764;1289;545564;-74
2023/09/26 10:15:18;;;;;;;19.90;14.70;;;;;;;;;;103928;1286;544847;-74
2023/09/26 10:18:59;;;;;;;12.90;8.70;;;;;;;;;;104056;1291;545313;-72
2023/09/26 10:22:35;;;;;;;19.00;14.20;;;;;;;;;;104072;1294;545865;-73
2023/09/26 10:26:07;;;;;;;15.00;10.30;;;;;;;;;;104129;1285;545058;-74
2023/09/26 10:29:47;;;;;;;13.20;9.00;;;;;;;;;;103754;1289;545098;-72
2023/09/26 10:33:22;;;;;;;14.70;10.30;;;;;;;;;;103897;1288;544706;-72
2023/09/26 10:37:07;;;;;;;16.00;9.60;;;;;;;;;;103992;1292;546059;-74
2023/09/26 10:40:40;;;;;;;16.80;12.50;;;;;;;;;;104155;1285;545334;-72
2023/09/26 10:44:17;;;;;;;14.30;9.70;;;;;;;;;;103762;1291;544849;-74
2023/09/26 10:47:55;;;;;;;12.90;9.90;;;;;;;;;;103859;1288;544980;-72
2023/09/26 10:51:32;;;;;;;15.40;10.40;;;;;;;;;;104020;1289;544861;-72
2023/09/26 10:55:10;;;;;;;14.20;10.50;;;;;;;;;;103905;1290;544862;-74
2023/09/26 10:58:47;;;;;;;13.30;9.70;;;;;;;;;;104676;1283;545827;-73
2023/09/26 11:02:25;;;;;;;14.20;9.90;;;;;;;;;;103749;1292;545038;-74
2023/09/26 11:06:03;;;;;;;13.80;9.20;;;;;;;;;;103718;1294;545415;-74
2023/09/26 11:09:40;;;;;;;12.30;8.40;;;;;;;;;;103779;1291;545683;-72
2023/09/26 11:13:17;;;;;;;13.00;9.30;;;;;;;;;;103811;1289;544897;-74
2023/09/26 11:16:55;;;;;;;14.50;8.40;;;;;;;;;;104568;1282;544725;-72
2023/09/26 11:20:39;;;;;;;14.50;8.90;;;;;;;;;;103506;1295;547883;-72
2023/09/26 11:24:27;;;;;;;14.80;10.20;;;;;;;;;;104106;1288;545500;-72
2023/09/26 11:27:47;;;;;;;13.00;9.20;;;;;;;;;;103849;1292;545654;-73
2023/09/26 11:31:30;;;;;;;13.20;9.50;;;;;;;;;;103811;1292;544822;-73
2023/09/26 11:35:08;;;;;;;11.50;8.90;;;;;;;;;;103971;1290;545014;-72
2023/09/26 11:38:48;;;;;;;13.90;8.80;;;;;;;;;;103660;1292;545059;-72
2023/09/26 11:42:22;;;;;;;12.80;8.70;;;;;;;;;;104546;1283;544853;-74
2023/09/26 11:46:02;;;;;;;14.60;10.90;;;;;;;;;;103654;1293;544948;-72
2023/09/26 11:49:37;;;;;;;16.90;11.60;;;;;;;;;;103857;1288;544756;-71
2023/09/26 11:53:15;;;;;;;15.80;11.60;;;;;;;;;;103883;1289;546394;-72
2023/09/26 11:56:52;;;;;;;14.70;8.90;;;;;;;;;;103736;1291;544778;-71
2023/09/26 12:00:30;;;;;;;14.70;11.20;;;;;;;;;;103622;1291;544745;-72
2023/09/26 12:04:06;;;;;;;17.70;12.30;;;;;;;;;;103817;1292;545950;-74
2023/09/26 12:07:41;;;;;;;14.90;11.40;;;;;;;;;;103849;1288;545127;-72
2023/09/26 12:11:19;;;;;;;16.40;11.50;;;;;;;;;;103867;1289;544980;-72
2023/09/26 12:15:18;;;;;;;14.30;11.40;;;;;;;;;;103997;1292;545094;-72
2023/09/26 12:18:39;;;;;;;16.10;11.60;;;;;;;;;;104231;1286;545290;-71
2023/09/26 12:22:17;;;;;;;16.50;11.80;;;;;;;;;;103695;1290;545037;-73
2023/09/26 12:25:55;;;;;;;14.20;11.10;;;;;;;;;;103790;1301;545875;-72
2023/09/26 12:29:32;;;;;;;15.80;11.00;;;;;;;;;;103767;1290;545503;-72
2023/09/26 12:33:09;;;;;;;17.70;11.30;;;;;;;;;;104695;1293;544832;-72
2023/09/26 12:36:43;;;;;;;18.10;11.70;;;;;;;;;;103844;1292;545032;-72
2023/09/26 12:40:25;;;;;;;16.20;11.20;;;;;;;;;;104105;1289;545939;-72
2023/09/26 12:44:02;;;;;;;15.10;10.90;;;;;;;;;;103668;1291;545057;-72
2023/09/26 12:47:41;;;;;;;15.70;10.30;;;;;;;;;;103766;1291;544722;-72
2023/09/26 12:51:18;;;;;;;13.40;10.20;;;;;;;;;;104104;1289;545003;-72
2023/09/26 12:54:55;;;;;;;14.70;10.10;;;;;;;;;;104110;1286;544756;-72
2023/09/26 12:58:33;;;;;;;17.00;9.20;;;;;;;;;;103911;1292;546096;-72
2023/09/26 13:02:10;;;;;;;15.70;10.30;;;;;;;;;;103787;1289;544904;-71
2023/09/26 13:05:47;;;;;;;16.80;10.70;;;;;;;;;;103764;1290;545101;-72
2023/09/26 13:09:25;;;;;;;17.90;11.30;;;;;;;;;;104032;1289;544796;-73
2023/09/26 13:13:03;;;;;;;14.90;11.00;;;;;;;;;;104212;1284;545061;-72
2023/09/26 13:16:41;;;;;;;15.90;9.90;;;;;;;;;;103777;1290;545940;-73
2023/09/26 13:20:18;;;;;;;15.30;9.20;;;;;;;;;;103739;1295;545584;-72
2023/09/26 13:23:55;;;;;;;15.60;10.50;;;;;;;;;;103753;1293;544762;-74
2023/09/26 13:27:33;;;;;;;14.50;10.50;;;;;;;;;;103677;1291;544985;-72
2023/09/26 13:31:10;;;;;;;16.80;11.00;;;;;;;;;;104016;1295;545692;-72
2023/09/26 13:34:47;;;;;;;17.70;12.60;;;;;;;;;;103821;1288;545149;-74
2023/09/26 13:38:25;;;;;;;17.00;10.90;;;;;;;;;;103769;1289;544903;-73
2023/09/26 13:42:04;;;;;;;15.50;9.90;;;;;;;;;;103714;1292;544836;-75
2023/09/26 13:45:41;;;;;;;15.10;9.90;;;;;;;;;;103756;1292;544862;-74
2023/09/26 13:49:19;;;;;;;16.00;10.50;;;;;;;;;;104104;1291;545626;-74
2023/09/26 13:52:55;;;;;;;16.60;10.70;;;;;;;;;;103941;1292;544769;-74
2023/09/26 13:56:32;;;;;;;15.00;9.70;;;;;;;;;;104004;1292;545069;-74
2023/09/26 14:00:12;;;;;;;17.00;10.50;;;;;;;;;;103742;1289;545347;-74
2023/09/26 14:03:48;;;;;;;16.80;10.20;;;;;;;;;;103759;1296;545069;-73
2023/09/26 14:07:26;;;;;;;15.30;9.90;;;;;;;;;;103941;1289;545006;-75
2023/09/26 14:11:02;;;;;;;15.90;9.40;;;;;;;;;;104319;1282;544784;-72
2023/09/26 14:14:39;;;;;;;13.60;9.00;;;;;;;;;;103818;1290;545423;-74
2023/09/26 14:18:17;;;;;;;14.70;9.10;;;;;;;;;;103994;1286;545313;-72
2023/09/26 14:21:56;;;;;;;13.70;9.90;;;;;;;;;;103732;1292;545054;-71
2023/09/26 14:25:33;;;;;;;13.40;9.20;;;;;;;;;;103657;1291;544960;-73
2023/09/26 14:29:11;;;;;;;12.90;8.60;;;;;;;;;;103743;1290;545432;-72
2023/09/26 14:32:49;;;;;;;12.70;7.70;;;;;;;;;;103732;1288;545444;-74
2023/09/26 14:36:32;;;;;;;13.80;8.00;;;;;;;;;;103583;1292;548277;-73
2023/09/26 14:40:03;;;;;;;13.80;8.20;;;;;;;;;;103742;1291;545455;-72
2023/09/26 14:43:39;;;;;;;12.50;8.10;;;;;;;;;;103867;1289;544979;-74
2023/09/26 14:47:17;;;;;;;13.70;8.30;;;;;;;;;;103987;1288;545475;-74
2023/09/26 14:50:56;;;;;;;14.50;8.60;;;;;;;;;;103713;1293;544960;-74
2023/09/26 14:54:33;;;;;;;13.90;8.50;;;;;;;;;;103549;1291;546501;-74
2023/09/26 14:58:09;;;;;;;14.40;9.80;;;;;;;;;;104019;1289;545168;-75
2023/09/26 15:01:43;;;;;;;16.00;9.30;;;;;;;;;;103864;1288;544985;-74
2023/09/26 15:05:26;;;;;;;16.80;10.00;;;;;;;;;;103670;1291;545739;-74
2023/09/26 15:09:03;;;;;;;15.60;11.10;;;;;;;;;;103688;1292;545026;-74
2023/09/26 15:12:40;;;;;;;16.90;11.20;;;;;;;;;;103700;1292;545629;-74
2023/09/26 15:16:19;;;;;;;19.40;11.90;;;;;;;;;;103756;1291;545650;-75
2023/09/26 15:19:56;;;;;;;15.50;10.60;;;;;;;;;;103620;1292;545004;-74
2023/09/26 15:23:34;;;;;;;13.50;10.00;;;;;;;;;;103625;1291;544795;-74
2023/09/26 15:27:06;;;;;;;18.10;12.30;;;;;;;;;;104081;1289;545531;-74
2023/09/26 15:30:50;;;;;;;19.70;12.30;;;;;;;;;;103744;1291;544837;-74
2023/09/26 15:34:27;;;;;;;16.50;9.90;;;;;;;;;;103739;1289;545053;-74
2023/09/26 15:38:00;;;;;;;16.70;10.40;;;;;;;;;;103836;1289;544757;-73
2023/09/26 15:41:42;;;;;;;16.80;10.80;;;;;;;;;;103917;1288;544901;-75
2023/09/26 15:45:20;;;;;;;14.00;9.20;;;;;;;;;;103616;1303;545187;-74
2023/09/26 15:48:59;;;;;;;14.70;8.30;;;;;;;;;;103699;1289;545211;-74
2023/09/26 15:52:36;;;;;;;13.40;7.00;;;;;;;;;;103739;1291;544791;-74
2023/09/26 15:56:12;;;;;;;12.60;7.00;;;;;;;;;;103828;1292;545945;-74
2023/09/26 15:59:55;;;;;;;12.80;7.40;;;;;;;;;;103598;1295;544954;-75
2023/09/26 16:03:33;;;;;;;12.10;7.00;;;;;;;;;;103743;1292;545570;-75
2023/09/26 16:07:09;;;;;;;13.40;6.50;;;;;;;;;;103741;1291;545008;-75
2023/09/26 16:10:47;;;;;;;11.60;7.10;;;;;;;;;;103738;1289;545914;-75
2023/09/26 16:14:44;;;;;;;11.80;7.40;;;;;;;;;;103600;1292;547994;-74
2023/09/26 16:18:02;;;;;;;15.10;8.10;;;;;;;;;;103857;1290;544864;-75
2023/09/26 16:21:36;;;;;;;13.70;8.40;;;;;;;;;;103838;1292;545186;-75
2023/09/26 16:25:18;;;;;;;12.50;7.40;;;;;;;;;;103710;1292;545618;-74
2023/09/26 16:28:56;;;;;;;11.90;8.50;;;;;;;;;;103748;1291;545455;-74
2023/09/26 16:32:53;;;;;;;13.70;8.70;;;;;;;;;;103647;1289;547844;-74
2023/09/26 16:36:16;;;;;;;16.40;9.70;;;;;;;;;;103799;1294;544903;-75
2023/09/26 16:39:52;;;;;;;14.10;10.10;;;;;;;;;;104251;1285;545055;-74
2023/09/26 16:43:26;;;;;;;15.20;9.70;;;;;;;;;;103796;1291;545081;-75
2023/09/26 16:47:03;;;;;;;14.20;9.70;;;;;;;;;;103671;1292;544773;-74
2023/09/26 16:50:41;;;;;;;16.90;10.70;;;;;;;;;;103706;1289;544902;-75
2023/09/26 16:54:18;;;;;;;15.70;11.60;;;;;;;;;;103710;1288;544594;-74
2023/09/26 16:57:55;;;;;;;17.10;12.80;;;;;;;;;;103705;1289;545193;-74
2023/09/26 17:01:33;;;;;;;17.80;12.10;;;;;;;;;;103825;1289;544976;-75
2023/09/26 17:05:11;;;;;;;16.10;11.90;;;;;;;;;;104067;1288;544832;-74
2023/09/26 17:08:50;;;;;;;18.30;12.60;;;;;;;;;;104103;1285;544794;-74
2023/09/26 17:12:26;;;;;;;19.30;14.10;;;;;;;;;;103715;1294;545082;-74
2023/09/26 17:16:03;;;;;;;20.50;15.10;;;;;;;;;;103837;1292;544796;-75
2023/09/26 17:19:41;;;;;;;21.50;15.40;;;;;;;;;;104075;1286;544958;-74
2023/09/26 17:23:18;;;;;;;19.60;15.40;;;;;;;;;;103747;1292;544762;-75
2023/09/26 17:26:56;;;;;;;22.20;15.50;;;;;;;;;;103693;1295;544998;-75
2023/09/26 17:30:33;;;;;;;23.30;17.80;;;;;;;;;;103800;1289;544712;-75
2023/09/26 17:34:11;;;;;;;23.10;17.10;;;;;;;;;;103572;1298;545010;-74
2023/09/26 17:37:48;;;;;;;24.80;17.50;;;;;;;;;;103608;1291;544775;-74
2023/09/26 17:41:25;;;;;;;21.20;17.10;;;;;;;;;;103607;1291;545062;-75
2023/09/26 17:45:03;;;;;;;23.40;18.70;;;;;;;;;;103699;1292;544946;-75
2023/09/26 17:48:41;;;;;;;26.70;20.30;;;;;;;;;;103758;1292;545860;-75
2023/09/26 17:52:18;;;;;;;23.10;18.70;;;;;;;;;;103819;1289;546193;-75
2023/09/26 17:55:55;;;;;;;23.90;18.80;;;;;;;;;;103647;1295;545029;-75
2023/09/26 17:59:34;;;;;;;22.90;18.50;;;;;;;;;;104483;1283;544734;-75
2023/09/26 18:03:10;;;;;;;22.50;18.20;;;;;;;;;;103768;1291;545141;-75
2023/09/26 18:06:48;;;;;;;25.30;19.60;;;;;;;;;;103733;1292;544960;-75
2023/09/26 18:10:26;;;;;;;23.20;18.80;;;;;;;;;;104093;1289;544997;-75
2023/09/26 18:14:03;;;;;;;25.10;19.70;;;;;;;;;;103845;1288;544794;-75
2023/09/26 18:17:40;;;;;;;25.40;21.00;;;;;;;;;;103929;1289;545755;-75
2023/09/26 18:21:18;;;;;;;27.90;21.50;;;;;;;;;;103818;1289;545031;-75
2023/09/26 18:24:55;;;;;;;26.30;19.70;;;;;;;;;;103557;1295;545559;-74
2023/09/26 18:28:34;;;;;;;26.30;20.30;;;;;;;;;;103759;1289;545052;-75
2023/09/26 18:32:10;;;;;;;26.70;20.30;;;;;;;;;;104612;1282;544818;-74
2023/09/26 18:35:47;;;;;;;27.10;21.00;;;;;;;;;;103760;1289;545017;-75
2023/09/26 18:39:21;;;;;;;29.90;22.60;;;;;;;;;;103771;1289;544704;-75
2023/09/26 18:43:04;;;;;;;27.80;21.20;;;;;;;;;;103662;1290;545072;-75
2023/09/26 18:46:38;;;;;;;31.40;22.10;;;;;;;;;;104080;1288;544807;-74
2023/09/26 18:50:20;;;;;;;27.10;21.10;;;;;;;;;;103829;1292;545057;-75
2023/09/26 18:53:58;;;;;;;29.60;23.30;;;;;;;;;;103705;1289;544746;-75
2023/09/26 18:57:35;;;;;;;31.10;23.20;;;;;;;;;;104013;1290;545122;-75
2023/09/26 19:01:13;;;;;;;30.30;23.20;;;;;;;;;;103477;1306;544843;-75
2023/09/26 19:04:50;;;;;;;31.40;23.00;;;;;;;;;;103719;1289;544923;-75
2023/09/26 19:08:28;;;;;;;32.90;24.10;;;;;;;;;;103630;1293;544783;-75
2023/09/26 19:12:06;;;;;;;33.60;24.40;;;;;;;;;;103764;1290;545576;-75
2023/09/26 19:15:43;;;;;;;33.50;25.30;;;;;;;;;;103741;1290;545036;-75
2023/09/26 19:19:20;;;;;;;34.60;24.40;;;;;;;;;;103759;1291;545716;-73
2023/09/26 19:22:58;;;;;;;31.10;23.40;;;;;;;;;;103792;1289;544982;-75
2023/09/26 19:26:36;;;;;;;32.50;23.30;;;;;;;;;;103756;1292;545040;-75
2023/09/26 19:30:14;;;;;;;29.30;22.80;;;;;;;;;;104433;1285;544803;-75
2023/09/26 19:33:50;;;;;;;29.70;22.00;;;;;;;;;;103755;1290;545084;-75
2023/09/26 19:37:27;;;;;;;29.90;22.50;;;;;;;;;;103773;1290;545480;-75
2023/09/26 19:41:06;;;;;;;30.30;23.10;;;;;;;;;;103725;1290;545970;-75
2023/09/26 19:45:02;;;;;;;31.90;24.80;;;;;;;;;;103679;1289;546581;-74
2023/09/26 19:48:19;;;;;;;34.00;23.30;;;;;;;;;;103756;1291;545435;-75
2023/09/26 19:51:58;;;;;;;32.80;23.80;;;;;;;;;;103781;1294;544863;-78
2023/09/26 19:55:44;;;;;;;35.70;25.30;;;;;;;;;;103499;1294;547829;-78
2023/09/26 19:59:18;;;;;;;37.20;24.20;;;;;;;;;;103622;1289;547759;-78
2023/09/26 20:02:52;;;;;;;35.90;26.00;;;;;;;;;;103694;1292;547971;-77
2023/09/26 20:06:33;;;;;;;30.60;23.10;;;;;;;;;;103652;1290;548295;-77
2023/09/26 20:10:10;;;;;;;34.60;24.00;;;;;;;;;;103528;1291;548058;-77
2023/09/26 20:13:48;;;;;;;32.40;23.50;;;;;;;;;;103631;1292;548272;-78
2023/09/26 20:17:22;;;;;;;29.30;22.70;;;;;;;;;;103620;1292;547994;-79
2023/09/26 20:21:05;;;;;;;34.60;24.00;;;;;;;;;;103334;1294;547953;-77
2023/09/26 20:24:40;;;;;;;35.30;25.00;;;;;;;;;;104450;1282;547972;-78
2023/09/26 20:28:18;;;;;;;30.80;23.20;;;;;;;;;;103574;1292;547956;-78
2023/09/26 20:31:55;;;;;;;33.00;24.40;;;;;;;;;;103653;1291;548537;-78
2023/09/26 20:35:32;;;;;;;38.50;27.00;;;;;;;;;;103961;1298;548185;-77
2023/09/26 20:39:10;;;;;;;33.60;25.80;;;;;;;;;;103565;1292;548203;-78
2023/09/26 20:42:41;;;;;;;34.30;24.90;;;;;;;;;;104120;1286;545589;-79
2023/09/26 20:46:15;;;;;;;34.20;26.30;;;;;;;;;;103762;1301;544771;-84
2023/09/26 20:50:23;;;;;;;36.80;25.40;;;;;;;;;;103615;1293;548056;-78
2023/09/26 20:53:42;;;;;;;27.80;20.60;;;;;;;;;;103598;1292;547974;-79
2023/09/26 20:57:18;;;;;;;27.80;21.80;;;;;;;;;;103496;1292;547965;-78
2023/09/26 21:00:56;;;;;;;28.90;22.20;;;;;;;;;;103547;1291;547993;-78
2023/09/26 21:04:28;;;;;;;25.60;19.00;;;;;;;;;;103743;1291;545709;-78
2023/09/26 21:08:05;;;;;;;37.60;26.70;;;;;;;;;;103516;1295;545378;-82
2023/09/26 21:11:43;;;;;;;38.60;27.30;;;;;;;;;;103743;1289;545696;-79
2023/09/26 21:15:26;;;;;;;34.50;26.00;;;;;;;;;;103603;1292;548032;-78
2023/09/26 21:19:03;;;;;;;36.30;26.90;;;;;;;;;;103612;1290;548010;-78
2023/09/26 21:22:41;;;;;;;36.50;26.10;;;;;;;;;;103614;1289;548019;-78
2023/09/26 21:26:19;;;;;;;35.70;24.90;;;;;;;;;;103511;1291;547993;-78